Time;durP1;ratioP1;P1;durP2;ratioP2;P2;SDS_P1;SDS_P2;PMS_P1;PMS_P2;Temp;Humidity;BMP_temperature;BMP_pressure;BME280_temperature;BME280_humidity;BME280_pressure;Samples;Min_cycle;Max_cycle;Signal;HPM_P1;HPM_P2
2022/05/25 00:01:12;;;;;;;3.85;2.85;;;10.30;99.90;;;;;;5033701;28;20400;-72
2022/05/25 00:03:38;;;;;;;3.78;3.45;;;10.40;99.90;;;;;;5036049;28;20951;-72
2022/05/25 00:06:06;;;;;;;3.95;3.60;;;10.30;99.90;;;;;;5037080;28;20053;-72
2022/05/25 00:08:32;;;;;;;5.85;3.63;;;10.30;99.90;;;;;;5032091;28;20083;-72
2022/05/25 00:10:58;;;;;;;4.03;3.60;;;10.30;99.90;;;;;;4997243;28;20044;-72
2022/05/25 00:13:25;;;;;;;5.13;4.15;;;10.30;99.90;;;;;;5037596;28;20079;-72
2022/05/25 00:15:51;;;;;;;3.30;3.00;;;10.30;99.90;;;;;;5003223;28;20056;-72
2022/05/25 00:18:17;;;;;;;4.45;4.03;;;10.20;99.90;;;;;;5020704;28;20163;-73
2022/05/25 00:20:42;;;;;;;4.22;3.72;;;10.30;99.90;;;;;;5038582;28;20111;-72
2022/05/25 00:23:08;;;;;;;3.38;2.92;;;10.30;99.90;;;;;;5038494;28;20207;-72
2022/05/25 00:25:37;;;;;;;4.68;3.30;;;10.30;99.90;;;;;;5039007;28;20198;-72
2022/05/25 00:28:11;;;;;;;7.43;4.75;;;10.30;99.90;;;;;;5038457;28;20131;-72
2022/05/25 00:30:37;;;;;;;5.35;3.90;;;10.20;99.90;;;;;;5038376;28;20056;-72
2022/05/25 00:33:03;;;;;;;5.50;3.38;;;10.30;99.90;;;;;;5039203;28;20802;-72
2022/05/25 00:35:31;;;;;;;6.10;4.80;;;10.20;99.90;;;;;;5020835;28;20045;-71
2022/05/25 00:37:58;;;;;;;6.55;3.78;;;10.20;99.90;;;;;;5040360;28;20049;-71
2022/05/25 00:40:39;;;;;;;4.68;3.58;;;10.20;99.90;;;;;;5042761;28;20729;-72
2022/05/25 00:43:06;;;;;;;5.03;4.00;;;10.20;99.90;;;;;;5018997;28;20307;-72
2022/05/25 00:45:38;;;;;;;4.78;4.28;;;10.10;99.90;;;;;;5042390;28;20055;-71
2022/05/25 00:48:05;;;;;;;5.47;4.20;;;10.20;99.90;;;;;;5042842;28;20056;-71
2022/05/25 00:51:12;;;;;;;5.55;4.80;;;10.10;99.90;;;;;;5024748;28;20072;-71
2022/05/25 00:53:18;;;;;;;6.30;3.97;;;10.10;99.90;;;;;;5042557;28;20532;-71
2022/05/25 00:55:44;;;;;;;7.68;4.18;;;10.10;99.90;;;;;;5043003;28;20067;-71
2022/05/25 00:58:10;;;;;;;6.25;5.22;;;10.10;99.90;;;;;;5043234;28;20049;-71
2022/05/25 01:00:37;;;;;;;8.30;4.20;;;10.10;99.90;;;;;;5025072;28;20476;-71
2022/05/25 01:03:10;;;;;;;5.60;4.63;;;10.10;99.90;;;;;;5043560;28;20047;-71
2022/05/25 01:05:39;;;;;;;5.53;4.95;;;10.10;99.90;;;;;;5025186;28;20052;-72
2022/05/25 01:08:36;;;;;;;5.32;4.05;;;10.10;99.90;;;;;;5042706;28;20053;-73
2022/05/25 01:11:20;;;;;;;5.97;4.97;;;10.00;99.90;;;;;;5019727;28;20627;-72
2022/05/25 01:14:04;;;;;;;5.25;4.45;;;10.10;99.90;;;;;;5042584;28;20052;-72
2022/05/25 01:16:47;;;;;;;;;;;10.10;99.90;;;;;;5043233;28;20060;-71
2022/05/25 01:19:25;;;;;;;5.47;4.45;;;10.00;99.90;;;;;;5036574;28;20574;-72
2022/05/25 01:21:53;;;;;;;6.03;5.13;;;10.00;99.90;;;;;;5042846;28;20045;-72
2022/05/25 01:24:31;;;;;;;5.93;5.32;;;9.90;99.90;;;;;;5038704;28;20053;-72
2022/05/25 01:27:23;;;;;;;6.90;5.00;;;9.90;99.90;;;;;;5018682;28;20544;-71
2022/05/25 01:30:10;;;;;;;6.63;4.97;;;9.90;99.90;;;;;;5035958;28;20057;-71
2022/05/25 01:32:46;;;;;;;6.60;4.93;;;9.90;99.90;;;;;;5042832;28;20056;-71
2022/05/25 01:35:28;;;;;;;7.72;4.88;;;9.90;99.90;;;;;;5041811;28;20696;-72
2022/05/25 01:37:58;;;;;;;7.20;5.40;;;10.00;99.90;;;;;;5040686;28;20189;-71
2022/05/25 01:40:38;;;;;;;6.43;5.25;;;9.90;99.90;;;;;;5041830;28;20382;-71
2022/05/25 01:43:45;;;;;;;5.93;5.07;;;9.90;99.90;;;;;;5037380;28;20044;-71
2022/05/25 01:46:18;;;;;;;7.57;5.57;;;9.90;99.90;;;;;;4940552;29;20378;-71
2022/05/25 01:48:45;;;;;;;;;;;9.80;99.90;;;;;;5024251;28;20516;-72
2022/05/25 01:51:18;;;;;;;8.05;5.78;;;9.80;99.90;;;;;;5035827;28;20039;-71
2022/05/25 01:53:49;;;;;;;7.22;5.70;;;9.80;99.90;;;;;;5036421;28;20437;-71
2022/05/25 01:56:18;;;;;;;8.45;5.68;;;9.70;99.90;;;;;;5042103;28;20077;-71
2022/05/25 01:58:47;;;;;;;6.43;5.82;;;9.80;99.90;;;;;;5021954;28;20056;-72
2022/05/25 02:01:14;;;;;;;6.68;5.13;;;9.70;99.90;;;;;;5035660;28;20127;-72
2022/05/25 02:06:31;;;;;;;9.98;6.10;;;9.70;99.90;;;;;;5023542;28;20064;-71
2022/05/25 02:09:17;;;;;;;8.30;6.72;;;9.80;99.90;;;;;;5041417;28;20045;-72
2022/05/25 02:11:49;;;;;;;7.93;5.85;;;9.70;99.90;;;;;;5039482;28;20049;-71
2022/05/25 02:14:24;;;;;;;8.70;6.45;;;9.70;99.90;;;;;;5018164;28;20155;-71
2022/05/25 02:17:05;;;;;;;7.60;6.90;;;9.70;99.90;;;;;;5041488;28;20057;-71
2022/05/25 02:19:50;;;;;;;8.65;6.72;;;9.70;99.90;;;;;;5041732;28;20091;-72
2022/05/25 02:22:20;;;;;;;9.75;7.68;;;9.70;99.90;;;;;;5023526;28;20053;-71
2022/05/25 02:24:52;;;;;;;7.72;6.03;;;9.60;99.90;;;;;;5041451;28;20049;-72
2022/05/25 02:27:18;;;;;;;10.65;6.45;;;9.60;99.90;;;;;;5023835;28;20048;-72
2022/05/25 02:29:51;;;;;;;9.15;6.40;;;9.70;99.90;;;;;;5041521;28;20092;-71
2022/05/25 02:32:25;;;;;;;9.55;7.32;;;9.60;99.90;;;;;;5022588;28;20564;-72
2022/05/25 02:34:54;;;;;;;8.90;6.68;;;9.60;99.90;;;;;;5041160;28;20047;-72
2022/05/25 02:37:24;;;;;;;10.65;7.97;;;9.60;99.90;;;;;;5040740;28;20119;-71
2022/05/25 02:39:52;;;;;;;10.93;7.47;;;9.60;99.90;;;;;;5041767;28;20114;-72
2022/05/25 02:42:18;;;;;;;10.32;6.28;;;9.60;99.90;;;;;;5041235;28;20191;-71
2022/05/25 02:44:44;;;;;;;11.30;7.03;;;9.70;99.90;;;;;;5041206;28;20057;-72
2022/05/25 02:47:10;;;;;;;8.10;6.63;;;9.50;99.90;;;;;;5041077;28;20105;-71
2022/05/25 02:49:36;;;;;;;7.90;5.68;;;9.60;99.90;;;;;;5040639;28;20048;-71
2022/05/25 02:52:04;;;;;;;7.72;5.65;;;9.60;99.90;;;;;;5040274;28;20152;-71
2022/05/25 02:54:29;;;;;;;7.53;6.25;;;9.60;99.90;;;;;;5039196;28;20056;-71
2022/05/25 02:56:55;;;;;;;11.15;7.32;;;9.60;99.90;;;;;;5021978;28;20045;-72
2022/05/25 02:59:21;;;;;;;10.00;7.60;;;9.60;99.90;;;;;;5022278;28;20048;-71
2022/05/25 03:01:47;;;;;;;10.10;7.90;;;9.60;99.90;;;;;;5039086;28;20041;-71
2022/05/25 03:04:13;;;;;;;7.93;6.63;;;9.60;99.90;;;;;;5040359;28;20102;-72
2022/05/25 03:06:38;;;;;;;11.65;7.93;;;9.60;99.90;;;;;;5039935;28;20055;-71
2022/05/25 03:09:04;;;;;;;9.65;6.82;;;9.50;99.90;;;;;;5040490;28;20056;-72
2022/05/25 03:11:30;;;;;;;11.10;7.28;;;9.50;99.90;;;;;;5039915;28;20409;-72
2022/05/25 03:13:55;;;;;;;11.88;7.32;;;9.60;99.90;;;;;;5040370;28;20049;-71
2022/05/25 03:16:22;;;;;;;8.52;6.38;;;9.50;99.90;;;;;;5040615;28;20187;-72
2022/05/25 03:18:50;;;;;;;7.78;6.43;;;9.50;99.90;;;;;;5022152;28;20114;-71
2022/05/25 03:21:18;;;;;;;9.82;7.65;;;9.40;99.90;;;;;;5040258;28;20084;-71
2022/05/25 03:23:43;;;;;;;8.30;6.63;;;9.50;99.90;;;;;;5039787;28;20140;-72
2022/05/25 03:26:09;;;;;;;8.75;6.70;;;9.50;99.90;;;;;;5005803;28;20365;-72
2022/05/25 03:28:36;;;;;;;7.43;6.68;;;9.50;99.90;;;;;;5040400;28;20053;-72
2022/05/25 03:31:02;;;;;;;10.23;7.15;;;9.50;99.90;;;;;;5021761;28;20061;-71
2022/05/25 03:33:28;;;;;;;10.73;7.30;;;9.40;99.90;;;;;;5040166;28;20106;-71
2022/05/25 03:35:54;;;;;;;17.45;9.00;;;9.40;99.90;;;;;;5040067;28;20053;-72
2022/05/25 03:38:20;;;;;;;9.02;8.10;;;9.50;99.90;;;;;;5039870;28;20871;-72
2022/05/25 03:40:46;;;;;;;9.65;7.65;;;9.40;99.90;;;;;;5039589;28;20129;-72
2022/05/25 03:43:15;;;;;;;11.23;7.80;;;9.50;99.90;;;;;;5021524;28;20778;-72
2022/05/25 03:45:41;;;;;;;8.23;6.85;;;9.50;99.90;;;;;;5039557;28;20055;-72
2022/05/25 03:48:07;;;;;;;10.27;7.57;;;9.50;99.90;;;;;;5039813;28;20049;-71
2022/05/25 03:50:38;;;;;;;11.80;7.43;;;9.50;99.90;;;;;;5039231;28;20053;-71
2022/05/25 03:53:04;;;;;;;10.40;8.35;;;9.50;99.90;;;;;;5021435;28;20056;-71
2022/05/25 03:55:30;;;;;;;9.23;7.78;;;9.60;99.90;;;;;;5039454;28;20119;-72
2022/05/25 03:57:56;;;;;;;8.82;7.10;;;9.50;99.90;;;;;;5039987;28;20798;-71
2022/05/25 04:00:22;;;;;;;9.07;7.95;;;9.60;99.90;;;;;;5038987;28;20084;-71
2022/05/25 04:02:48;;;;;;;11.98;7.80;;;9.60;99.90;;;;;;5020826;28;20048;-72
2022/05/25 04:05:14;;;;;;;13.23;8.43;;;9.60;99.90;;;;;;5039126;28;20412;-72
2022/05/25 04:07:47;;;;;;;15.60;9.45;;;9.70;99.90;;;;;;5021176;28;20101;-71
2022/05/25 04:10:17;;;;;;;9.95;7.68;;;9.70;99.90;;;;;;5039263;28;20065;-71
2022/05/25 04:12:43;;;;;;;13.52;7.90;;;9.70;99.90;;;;;;5021297;28;20443;-72
2022/05/25 04:15:13;;;;;;;12.75;8.93;;;9.70;99.90;;;;;;5039091;28;20174;-71
2022/05/25 04:17:39;;;;;;;8.20;6.47;;;9.80;99.90;;;;;;5039208;28;20379;-72
2022/05/25 04:20:05;;;;;;;12.65;9.50;;;9.80;99.90;;;;;;5038871;28;20484;-71
2022/05/25 04:22:32;;;;;;;8.25;6.40;;;9.80;99.90;;;;;;5038572;28;20041;-71
2022/05/25 04:25:02;;;;;;;12.98;9.18;;;9.90;99.90;;;;;;5035837;28;20473;-72
2022/05/25 04:27:28;;;;;;;12.88;8.88;;;9.90;99.90;;;;;;5001277;28;20053;-72
2022/05/25 04:29:54;;;;;;;10.07;8.30;;;10.00;99.90;;;;;;5036119;28;20107;-71
2022/05/25 04:32:20;;;;;;;11.95;8.05;;;10.00;99.90;;;;;;5036433;28;20053;-72
2022/05/25 04:34:45;;;;;;;10.52;8.52;;;10.00;99.90;;;;;;5018784;28;20041;-72
2022/05/25 04:39:56;;;;;;;11.65;8.10;;;10.10;99.90;;;;;;5033980;28;20429;-73
2022/05/25 04:42:21;;;;;;;9.65;7.88;;;10.10;99.90;;;;;;5036484;28;20044;-73
2022/05/25 04:44:47;;;;;;;13.20;8.75;;;10.20;99.90;;;;;;5036333;28;20490;-73
2022/05/25 04:47:13;;;;;;;13.85;8.13;;;10.30;99.90;;;;;;5036324;28;20057;-73
2022/05/25 04:49:45;;;;;;;11.15;8.32;;;10.30;99.90;;;;;;5018635;28;20041;-72
2022/05/25 04:52:11;;;;;;;10.60;8.48;;;10.40;99.90;;;;;;5016951;28;20542;-72
2022/05/25 04:54:36;;;;;;;14.10;8.38;;;10.40;99.90;;;;;;5018232;28;20481;-72
2022/05/25 04:57:23;;;;;;;11.73;8.52;;;10.50;99.90;;;;;;5035171;28;20049;-72
2022/05/25 04:59:54;;;;;;;11.77;8.43;;;10.50;99.90;;;;;;5036034;28;20128;-74
2022/05/25 05:02:20;;;;;;;15.68;8.20;;;10.60;99.90;;;;;;5035928;28;20126;-73
2022/05/25 05:04:47;;;;;;;10.10;8.02;;;10.60;99.90;;;;;;5036416;28;20587;-73
2022/05/25 05:07:14;;;;;;;11.93;8.43;;;10.80;99.90;;;;;;5017728;28;20057;-73
2022/05/25 05:09:42;;;;;;;10.57;7.93;;;10.90;99.90;;;;;;5036117;28;20049;-73
2022/05/25 05:12:09;;;;;;;12.40;8.63;;;10.90;99.90;;;;;;5035894;28;20045;-73
2022/05/25 05:14:35;;;;;;;10.73;8.82;;;11.00;99.90;;;;;;5015011;28;20048;-74
2022/05/25 05:17:04;;;;;;;9.02;7.72;;;11.00;99.90;;;;;;5014897;28;20044;-74
2022/05/25 05:19:30;;;;;;;10.63;8.85;;;11.10;99.90;;;;;;5033548;28;20095;-73
2022/05/25 05:22:00;;;;;;;9.18;7.63;;;11.20;99.90;;;;;;4999046;28;20056;-73
2022/05/25 05:24:27;;;;;;;11.85;8.00;;;11.30;99.90;;;;;;5036484;28;20048;-73
2022/05/25 05:26:54;;;;;;;14.82;7.97;;;11.30;99.90;;;;;;5038781;28;20689;-72
2022/05/25 05:29:22;;;;;;;12.27;7.88;;;11.50;99.90;;;;;;5039012;28;20144;-73
2022/05/25 05:31:48;;;;;;;12.55;8.60;;;11.60;99.90;;;;;;5038479;28;20057;-74
2022/05/25 05:34:14;;;;;;;11.35;9.02;;;11.70;99.90;;;;;;5034811;28;20115;-72
2022/05/25 05:36:47;;;;;;;9.15;7.97;;;11.70;99.90;;;;;;5037974;28;20950;-73
2022/05/25 05:39:14;;;;;;;10.45;7.20;;;11.80;99.90;;;;;;5037655;28;20138;-73
2022/05/25 05:41:46;;;;;;;8.98;7.57;;;11.90;99.90;;;;;;5037576;28;20043;-73
2022/05/25 05:44:16;;;;;;;9.57;7.88;;;12.10;99.90;;;;;;5037416;28;20048;-70
2022/05/25 05:46:43;;;;;;;11.73;8.68;;;12.10;99.90;;;;;;5019435;28;20044;-71
2022/05/25 05:49:11;;;;;;;10.90;7.63;;;12.30;99.90;;;;;;5037331;28;20057;-71
2022/05/25 05:51:39;;;;;;;13.13;7.93;;;12.30;99.90;;;;;;5018740;28;20763;-71
2022/05/25 05:54:05;;;;;;;11.48;9.15;;;12.40;99.90;;;;;;5018931;28;20430;-71
2022/05/25 05:56:32;;;;;;;11.85;8.98;;;12.50;99.90;;;;;;5034445;28;20120;-71
2022/05/25 05:58:59;;;;;;;11.48;7.45;;;12.60;99.90;;;;;;5033842;28;20135;-71
2022/05/25 06:01:25;;;;;;;9.55;7.03;;;12.60;99.90;;;;;;5034454;28;20075;-71
2022/05/25 06:03:51;;;;;;;10.88;8.02;;;12.80;99.90;;;;;;5034530;28;20041;-71
2022/05/25 06:06:17;;;;;;;10.50;6.88;;;12.90;99.90;;;;;;5034471;28;20044;-72
2022/05/25 06:08:46;;;;;;;10.93;8.07;;;13.00;99.90;;;;;;5035722;28;20056;-71
2022/05/25 06:11:15;;;;;;;10.73;7.22;;;13.10;99.90;;;;;;5035276;28;20044;-72
2022/05/25 06:13:40;;;;;;;12.23;7.40;;;13.30;99.90;;;;;;5033655;28;20502;-72
2022/05/25 06:21:49;;;;;;;8.98;6.65;;;13.70;99.90;;;;;;5036098;28;20041;-71
2022/05/25 06:24:15;;;;;;;10.35;7.22;;;14.00;99.90;;;;;;5037241;28;20819;-72
2022/05/25 06:26:40;;;;;;;12.10;7.57;;;14.70;99.90;;;;;;5036582;28;20072;-73
2022/05/25 06:29:06;;;;;;;7.40;5.72;;;15.90;99.90;;;;;;5037014;28;20491;-72
2022/05/25 06:31:32;;;;;;;6.72;5.88;;;17.10;99.90;;;;;;5032430;28;20057;-72
2022/05/25 06:33:58;;;;;;;9.75;6.45;;;18.10;99.90;;;;;;5035721;28;20080;-72
2022/05/25 06:36:29;;;;;;;9.13;5.82;;;18.70;99.90;;;;;;5037100;28;20049;-73
2022/05/25 06:38:56;;;;;;;7.18;5.75;;;19.40;99.90;;;;;;5035146;28;20056;-73
2022/05/25 06:41:22;;;;;;;9.55;6.93;;;20.00;99.90;;;;;;5037627;28;20053;-73
2022/05/25 06:43:48;;;;;;;7.45;5.72;;;20.40;99.90;;;;;;5037948;28;20136;-73
2022/05/25 06:46:18;;;;;;;9.07;5.72;;;20.70;99.90;;;;;;4667156;28;10000532;-73
2022/05/25 06:48:52;;;;;;;7.57;5.68;;;21.00;99.90;;;;;;5032860;28;20478;-76
2022/05/25 06:51:21;;;;;;;8.10;5.03;;;21.40;99.90;;;;;;5036254;28;20157;-72
2022/05/25 06:53:49;;;;;;;5.70;5.10;;;21.20;99.90;;;;;;5018955;28;20971;-72
2022/05/25 06:56:18;;;;;;;6.53;4.80;;;22.00;99.90;;;;;;4683978;28;9999750;-73
2022/05/25 06:58:45;;;;;;;4.28;3.83;;;22.20;99.90;;;;;;5033551;28;20057;-72
2022/05/25 07:01:11;;;;;;;9.45;5.15;;;22.60;99.90;;;;;;5035082;28;20051;-71
2022/05/25 07:03:38;;;;;;;5.32;4.38;;;22.60;99.90;;;;;;5018288;28;20048;-72
2022/05/25 07:06:08;;;;;;;6.85;4.78;;;23.20;99.90;;;;;;5035900;28;20044;-71
2022/05/25 07:08:34;;;;;;;6.03;4.85;;;23.10;97.20;;;;;;5034757;28;20088;-72
2022/05/25 07:11:00;;;;;;;6.72;4.70;;;23.00;95.90;;;;;;5035600;28;20051;-72
2022/05/25 07:13:27;;;;;;;7.57;5.05;;;23.10;97.30;;;;;;5035874;28;20048;-71
2022/05/25 07:15:57;;;;;;;4.68;4.18;;;23.10;97.10;;;;;;5035365;28;20055;-72
2022/05/25 07:18:23;;;;;;;9.43;4.40;;;23.20;95.70;;;;;;5017052;28;20041;-71
2022/05/25 07:20:50;;;;;;;4.82;4.32;;;;;;;;;;5035681;28;20375;-71
2022/05/25 07:23:15;;;;;;;4.65;4.25;;;23.50;95.90;;;;;;5035946;28;20063;-71
2022/05/25 07:25:41;;;;;;;4.35;3.53;;;23.50;95.80;;;;;;5035894;28;20778;-72
2022/05/25 07:28:07;;;;;;;6.93;4.28;;;23.90;94.50;;;;;;5035848;28;20047;-71
2022/05/25 07:30:33;;;;;;;4.45;3.42;;;23.70;94.60;;;;;;5016837;28;20053;-72
2022/05/25 07:32:59;;;;;;;3.38;3.08;;;23.40;94.40;;;;;;5035076;28;20057;-71
2022/05/25 07:35:26;;;;;;;5.05;3.88;;;23.40;94.20;;;;;;5032708;28;20072;-72
2022/05/25 07:37:54;;;;;;;5.57;3.60;;;23.70;94.20;;;;;;5017229;28;20206;-72
2022/05/25 07:40:28;;;;;;;4.47;3.17;;;23.90;93.80;;;;;;5034563;28;20045;-72
2022/05/25 07:43:00;;;;;;;5.30;4.50;;;23.90;92.30;;;;;;5035013;28;20144;-71
2022/05/25 07:45:27;;;;;;;5.38;3.95;;;24.10;92.60;;;;;;5032509;28;20044;-73
2022/05/25 07:47:54;;;;;;;5.57;4.00;;;24.20;92.70;;;;;;5000618;28;20048;-72
2022/05/25 07:50:23;;;;;;;5.40;3.72;;;24.30;92.40;;;;;;5035324;28;20151;-72
2022/05/25 07:52:52;;;;;;;6.03;3.65;;;24.30;92.10;;;;;;5034903;28;20118;-72
2022/05/25 07:55:18;;;;;;;4.97;3.70;;;24.40;91.90;;;;;;4322278;28;10000463;-71
2022/05/25 07:57:44;;;;;;;4.13;3.60;;;24.10;91.70;;;;;;5035612;28;20084;-71
2022/05/25 08:00:11;;;;;;;7.85;4.18;;;24.70;91.70;;;;;;5034951;28;20053;-74
2022/05/25 08:05:43;;;;;;;5.18;4.10;;;24.60;88.70;;;;;;4684991;28;10000700;-72
2022/05/25 08:08:17;;;;;;;5.20;3.65;;;24.60;90.60;;;;;;5037788;28;20632;-71
2022/05/25 08:10:47;;;;;;;4.25;3.60;;;24.40;89.60;;;;;;5035144;28;20580;-72
2022/05/25 08:13:16;;;;;;;3.40;3.05;;;24.50;90.40;;;;;;5039019;28;20060;-72
2022/05/25 08:15:43;;;;;;;4.03;2.78;;;24.60;90.70;;;;;;5021439;28;20206;-71
2022/05/25 08:18:14;;;;;;;3.40;3.10;;;24.30;89.50;;;;;;5038365;28;20547;-72
2022/05/25 08:20:41;;;;;;;2.80;2.60;;;24.20;88.60;;;;;;5039168;28;20225;-73
2022/05/25 08:23:09;;;;;;;4.63;3.10;;;24.80;89.90;;;;;;5039283;28;20045;-73
2022/05/25 08:25:35;;;;;;;3.83;3.13;;;24.80;88.40;;;;;;5039201;28;20060;-71
2022/05/25 08:28:02;;;;;;;5.07;2.70;;;24.50;87.70;;;;;;5038768;28;20059;-72
2022/05/25 08:30:28;;;;;;;3.28;2.97;;;24.50;88.30;;;;;;5038698;28;20095;-72
2022/05/25 08:32:54;;;;;;;5.35;3.13;;;24.60;88.30;;;;;;5038437;28;20110;-71
2022/05/25 08:35:20;;;;;;;3.40;3.10;;;24.80;87.70;;;;;;5038650;28;20057;-72
2022/05/25 08:37:46;;;;;;;3.03;2.50;;;24.70;87.30;;;;;;5039122;28;20065;-74
2022/05/25 08:40:17;;;;;;;4.68;2.22;;;24.90;87.70;;;;;;4999355;28;20040;-72
2022/05/25 08:43:08;;;;;;;4.35;1.85;;;24.70;84.30;;;;;;5037213;28;20134;-72
2022/05/25 08:45:38;;;;;;;2.35;2.05;;;24.30;82.60;;;;;;5036462;28;20053;-72
2022/05/25 08:48:06;;;;;;;3.15;2.03;;;23.80;83.80;;;;;;5037554;28;20049;-71
2022/05/25 08:50:32;;;;;;;2.80;2.17;;;23.50;85.20;;;;;;5037074;28;20053;-73
2022/05/25 08:53:00;;;;;;;2.28;1.80;;;23.30;85.60;;;;;;5037797;28;20045;-73
2022/05/25 08:55:52;;;;;;;2.40;2.20;;;23.00;85.60;;;;;;5037501;28;20080;-71
2022/05/25 08:58:19;;;;;;;4.20;2.80;;;22.70;84.40;;;;;;5017840;28;20129;-71
2022/05/25 09:00:48;;;;;;;1.92;1.70;;;22.50;84.90;;;;;;5021186;28;20056;-72
2022/05/25 09:03:34;;;;;;;2.55;2.10;;;22.40;87.00;;;;;;5021650;28;20489;-72
2022/05/25 09:06:20;;;;;;;2.55;2.35;;;22.20;88.10;;;;;;5038612;28;20049;-73
2022/05/25 09:08:59;;;;;;;2.30;2.15;;;21.70;85.40;;;;;;5042016;28;20061;-72
2022/05/25 09:11:47;;;;;;;3.40;2.60;;;21.60;87.80;;;;;;5021975;28;20556;-69
2022/05/25 09:14:22;;;;;;;3.05;2.80;;;21.00;88.40;;;;;;5039504;28;20076;-69
2022/05/25 09:16:51;;;;;;;5.45;2.92;;;20.60;89.50;;;;;;5024547;28;20084;-68
2022/05/25 09:19:21;;;;;;;5.60;2.90;;;20.60;90.20;;;;;;5024377;28;20057;-69
2022/05/25 09:21:59;;;;;;;3.05;2.50;;;20.60;90.40;;;;;;5043107;28;20049;-69
2022/05/25 09:24:27;;;;;;;4.43;2.78;;;20.70;90.80;;;;;;5042836;28;20049;-69
2022/05/25 09:26:53;;;;;;;3.85;2.45;;;20.80;90.80;;;;;;5042136;28;20059;-69
2022/05/25 09:29:20;;;;;;;5.20;3.00;;;21.00;91.00;;;;;;5041446;28;20392;-69
2022/05/25 09:32:01;;;;;;;3.58;3.08;;;21.10;90.90;;;;;;5039313;28;20406;-69
2022/05/25 09:34:57;;;;;;;3.95;2.33;;;20.90;90.00;;;;;;5007001;28;20056;-68
2022/05/25 09:37:56;;;;;;;3.78;2.40;;;21.00;91.20;;;;;;5022428;28;20041;-69
2022/05/25 09:40:30;;;;;;;3.17;2.53;;;20.90;90.80;;;;;;5020990;28;20052;-71
2022/05/25 09:42:57;;;;;;;3.70;2.50;;;20.60;90.30;;;;;;5022325;28;20045;-70
2022/05/25 09:45:41;;;;;;;2.75;2.53;;;21.10;91.10;;;;;;5038645;28;20068;-70
2022/05/25 09:48:15;;;;;;;2.63;2.42;;;21.00;90.60;;;;;;5021471;28;20080;-72
2022/05/25 09:50:48;;;;;;;3.47;2.30;;;20.70;90.30;;;;;;5040934;28;20052;-72
2022/05/25 09:53:20;;;;;;;3.72;2.50;;;20.40;90.70;;;;;;5038113;28;20052;-73
2022/05/25 09:56:01;;;;;;;2.85;2.45;;;20.40;91.00;;;;;;5036201;28;20045;-73
2022/05/25 09:58:27;;;;;;;4.75;2.20;;;20.70;91.70;;;;;;5011748;28;20075;-74
2022/05/25 10:00:58;;;;;;;2.92;2.47;;;20.50;91.30;;;;;;5038699;28;20481;-73
2022/05/25 10:03:38;;;;;;;4.78;2.78;;;20.40;90.80;;;;;;5020678;28;20048;-73
2022/05/25 10:06:34;;;;;;;3.03;2.72;;;20.50;91.90;;;;;;5039306;28;20567;-73
2022/05/25 10:09:15;;;;;;;2.40;2.20;;;20.50;91.10;;;;;;5032894;28;20171;-74
2022/05/25 10:11:48;;;;;;;2.47;2.22;;;20.20;88.10;;;;;;5039233;28;20049;-73
2022/05/25 10:14:19;;;;;;;2.85;1.85;;;20.30;90.40;;;;;;5034442;28;20575;-72
2022/05/25 10:16:45;;;;;;;3.90;2.25;;;20.00;91.70;;;;;;5037624;28;20061;-73
2022/05/25 10:19:16;;;;;;;3.60;2.33;;;20.10;91.90;;;;;;5038940;28;20048;-73
2022/05/25 10:21:54;;;;;;;3.83;2.47;;;20.10;90.60;;;;;;5020901;28;20155;-74
2022/05/25 10:24:40;;;;;;;2.88;2.58;;;20.00;91.90;;;;;;5038533;28;20052;-73
2022/05/25 10:27:24;;;;;;;2.20;1.80;;;19.70;90.80;;;;;;5034992;28;20779;-73
2022/05/25 10:38:13;;;;;;;3.92;2.40;;;19.50;91.70;;;;;;5035019;28;20096;-72
2022/05/25 10:40:44;;;;;;;3.30;2.00;;;19.40;91.40;;;;;;5040214;28;20059;-72
2022/05/25 10:43:16;;;;;;;4.53;2.47;;;19.40;92.30;;;;;;5022720;28;20053;-72
2022/05/25 10:45:51;;;;;;;3.25;1.90;;;19.50;92.00;;;;;;5022042;28;20044;-72
2022/05/25 10:48:33;;;;;;;4.60;2.40;;;19.70;92.10;;;;;;5040824;28;20091;-72
2022/05/25 10:51:04;;;;;;;4.13;2.42;;;20.20;91.80;;;;;;5040927;28;20045;-72
2022/05/25 10:54:44;;;;;;;4.95;1.73;;;20.50;91.10;;;;;;5040861;28;20223;-72
2022/05/25 10:56:50;;;;;;;2.17;1.70;;;20.90;91.40;;;;;;5022090;28;20089;-72
2022/05/25 10:59:27;;;;;;;2.28;1.90;;;21.00;90.60;;;;;;5023078;28;20045;-71
2022/05/25 11:02:08;;;;;;;3.10;2.13;;;21.10;91.60;;;;;;5039855;28;20037;-71
2022/05/25 11:04:52;;;;;;;1.42;1.33;;;21.30;91.30;;;;;;5040557;28;20052;-72
2022/05/25 11:07:36;;;;;;;3.42;2.00;;;21.20;89.10;;;;;;5035103;28;20045;-72
2022/05/25 11:10:23;;;;;;;1.85;1.75;;;20.90;89.90;;;;;;5040811;28;20106;-72
2022/05/25 11:13:14;;;;;;;2.35;2.20;;;20.50;88.70;;;;;;5040587;28;20044;-72
2022/05/25 11:16:02;;;;;;;7.03;2.50;;;20.40;91.20;;;;;;5035624;28;20198;-72
2022/05/25 11:18:47;;;;;;;3.05;2.13;;;20.10;90.30;;;;;;5022233;28;20055;-71
2022/05/25 11:21:44;;;;;;;2.65;2.45;;;20.30;91.00;;;;;;5021393;28;20061;-72
2022/05/25 11:24:38;;;;;;;2.30;2.10;;;20.60;90.50;;;;;;5039875;28;20268;-71
2022/05/25 11:27:18;;;;;;;2.05;1.92;;;20.80;91.20;;;;;;5034877;28;20057;-71
2022/05/25 11:29:43;;;;;;;4.25;2.30;;;20.70;90.00;;;;;;5040062;28;20044;-73
2022/05/25 11:32:12;;;;;;;2.42;2.05;;;20.30;88.20;;;;;;5039175;28;20056;-71
2022/05/25 11:34:46;;;;;;;2.55;2.35;;;20.30;90.10;;;;;;5021825;28;20057;-71
2022/05/25 11:37:15;;;;;;;3.15;2.60;;;19.90;91.80;;;;;;5039634;28;20498;-73
2022/05/25 11:40:06;;;;;;;2.88;2.67;;;20.70;90.50;;;;;;5039930;28;20053;-72
2022/05/25 11:43:01;;;;;;;3.13;2.83;;;21.00;90.90;;;;;;5039818;28;20044;-71
2022/05/25 11:45:53;;;;;;;3.17;2.88;;;21.10;90.40;;;;;;5018815;28;20049;-70
2022/05/25 11:48:38;;;;;;;7.18;3.92;;;21.10;90.40;;;;;;5033484;28;20066;-72
2022/05/25 11:51:22;;;;;;;7.55;3.97;;;20.70;90.40;;;;;;5039113;28;20527;-71
2022/05/25 11:53:56;;;;;;;4.72;3.58;;;20.60;90.80;;;;;;5039185;28;20151;-72
2022/05/25 11:56:37;;;;;;;4.22;3.53;;;20.40;91.10;;;;;;5039355;28;20089;-72
2022/05/25 11:59:21;;;;;;;8.65;4.18;;;20.00;92.00;;;;;;5033836;28;20782;-72
2022/05/25 12:02:15;;;;;;;6.05;5.45;;;19.70;92.90;;;;;;5021072;28;20771;-72
2022/05/25 12:05:06;;;;;;;4.75;4.03;;;18.90;93.50;;;;;;4998779;28;20057;-72
2022/05/25 12:07:52;;;;;;;6.93;3.78;;;18.20;95.20;;;;;;5020177;28;20055;-72
2022/05/25 12:10:37;;;;;;;3.38;2.88;;;17.60;97.50;;;;;;5021454;28;20563;-71
2022/05/25 12:13:15;;;;;;;2.53;2.33;;;17.10;98.60;;;;;;5015916;28;20045;-72
2022/05/25 12:16:04;;;;;;;4.70;2.40;;;17.00;99.90;;;;;;5039310;28;20051;-72
2022/05/25 12:18:49;;;;;;;5.47;3.13;;;16.90;99.10;;;;;;5028243;28;20122;-72
2022/05/25 12:21:41;;;;;;;2.83;2.63;;;17.00;98.90;;;;;;5039191;28;20057;-72
2022/05/25 12:24:22;;;;;;;3.15;2.90;;;17.40;99.90;;;;;;5020496;28;20051;-72
2022/05/25 12:26:48;;;;;;;3.13;2.58;;;17.50;99.90;;;;;;5039190;28;20045;-72
2022/05/25 12:29:14;;;;;;;3.75;3.13;;;17.70;98.60;;;;;;5021637;28;20052;-71
2022/05/25 12:31:42;;;;;;;3.25;2.95;;;17.90;99.00;;;;;;5038812;28;20072;-72
2022/05/25 12:34:14;;;;;;;7.05;2.80;;;18.00;98.70;;;;;;5044916;28;20142;-71
2022/05/25 12:36:42;;;;;;;4.07;3.60;;;18.30;98.90;;;;;;5044253;28;20049;-71
2022/05/25 12:39:11;;;;;;;2.70;2.50;;;18.60;98.20;;;;;;5045290;28;20191;-72
2022/05/25 12:41:40;;;;;;;4.75;3.13;;;18.90;98.60;;;;;;5027358;28;20126;-72
2022/05/25 12:49:55;;;;;;;4.43;3.17;;;19.50;97.30;;;;;;5039077;28;20057;-72
2022/05/25 12:52:41;;;;;;;4.75;2.97;;;19.40;95.10;;;;;;5026743;28;20643;-71
2022/05/25 12:55:17;;;;;;;5.85;3.13;;;19.60;95.30;;;;;;5041409;28;20144;-71
2022/05/25 12:57:50;;;;;;;3.05;2.67;;;19.70;94.30;;;;;;5045101;28;20045;-72
2022/05/25 13:00:22;;;;;;;3.92;2.42;;;19.70;94.50;;;;;;5027414;28;20049;-72
2022/05/25 13:02:50;;;;;;;3.47;2.35;;;19.80;94.00;;;;;;5026003;28;20045;-72
2022/05/25 13:05:47;;;;;;;3.95;2.33;;;19.80;94.20;;;;;;5015074;28;20053;-72
2022/05/25 13:08:47;;;;;;;3.58;2.20;;;19.80;93.90;;;;;;5041895;28;20108;-71
2022/05/25 13:11:43;;;;;;;3.92;2.22;;;19.70;93.90;;;;;;5042500;28;20045;-72
2022/05/25 13:14:18;;;;;;;3.75;2.22;;;19.70;93.40;;;;;;5042792;28;20077;-72
2022/05/25 13:16:45;;;;;;;4.07;1.42;;;20.00;94.50;;;;;;5024200;28;20053;-72
2022/05/25 13:19:22;;;;;;;5.55;1.55;;;20.10;91.80;;;;;;5014516;28;20052;-72
2022/05/25 13:22:04;;;;;;;2.42;1.63;;;20.20;91.80;;;;;;5032976;28;20049;-72
2022/05/25 13:24:56;;;;;;;1.73;1.00;;;20.00;90.10;;;;;;5021341;28;20045;-72
2022/05/25 13:27:57;;;;;;;3.90;1.13;;;20.00;90.60;;;;;;5028800;28;20160;-73
2022/05/25 13:30:55;;;;;;;3.33;1.00;;;20.20;91.40;;;;;;5022406;28;20072;-73
2022/05/25 13:33:21;;;;;;;3.70;1.20;;;20.10;90.10;;;;;;5005244;28;20163;-80
2022/05/25 13:35:53;;;;;;;2.15;1.63;;;20.00;90.90;;;;;;5045374;28;20048;-79
2022/05/25 13:39:08;;;;;;;2.03;1.10;;;19.80;91.20;;;;;;5039490;28;20084;-80
2022/05/25 13:41:45;;;;;;;2.28;1.27;;;19.80;91.40;;;;;;4999248;28;20056;-78
2022/05/25 13:44:18;;;;;;;4.50;0.93;;;19.80;89.60;;;;;;5043187;28;20049;-81